createdAt,value
2023-02-13T00:01:00.077Z,41.83
2023-02-13T00:03:26.798Z,40.10
2023-02-13T00:05:53.422Z,43.25
2023-02-13T00:08:19.965Z,45.15
2023-02-13T00:10:48.297Z,43.25
2023-02-13T00:13:17.393Z,41.58
2023-02-13T00:15:46.059Z,44.08
2023-02-13T00:18:12.647Z,42.58
2023-02-13T00:20:39.244Z,42.95
2023-02-13T00:23:08.197Z,47.35
2023-02-13T00:25:34.751Z,42.08
2023-02-13T00:28:01.450Z,44.15
2023-02-13T00:30:28.105Z,40.85
2023-02-13T00:32:54.676Z,40.45
2023-02-13T00:35:21.245Z,39.65
2023-02-13T00:37:47.854Z,45.38
2023-02-13T00:40:17.130Z,43.75
2023-02-13T00:42:46.111Z,44.63
2023-02-13T00:45:12.695Z,40.65
2023-02-13T00:47:41.714Z,46.25
2023-02-13T00:50:08.583Z,41.80
2023-02-13T00:52:35.217Z,46.88
2023-02-13T00:55:03.842Z,44.10
2023-02-13T00:57:32.779Z,42.35
2023-02-13T01:00:01.726Z,46.75
2023-02-13T01:02:28.310Z,45.17
2023-02-13T01:04:54.881Z,40.75
2023-02-13T01:07:21.450Z,44.15
2023-02-13T01:09:50.408Z,45.58
2023-02-13T01:12:16.975Z,42.22
2023-02-13T01:14:43.512Z,44.60
2023-02-13T01:17:10.072Z,44.08
2023-02-13T01:19:36.665Z,40.65
2023-02-13T01:22:03.209Z,47.13
2023-02-13T01:24:33.275Z,43.00
2023-02-13T01:27:02.499Z,43.25
2023-02-13T01:29:29.795Z,45.63
2023-02-13T01:31:58.817Z,45.05
2023-02-13T01:34:25.575Z,42.63
2023-02-13T01:36:52.165Z,43.78
2023-02-13T01:39:18.830Z,41.42
2023-02-13T01:41:45.441Z,48.67
2023-02-13T01:44:53.638Z,39.45
2023-02-13T01:47:29.302Z,43.15
2023-02-13T01:50:08.331Z,47.33
2023-02-13T01:52:43.983Z,47.90
2023-02-13T01:55:12.009Z,45.92
2023-02-13T01:57:42.365Z,47.05
2023-02-13T02:00:12.154Z,46.53
2023-02-13T02:02:46.771Z,50.70
2023-02-13T02:05:17.095Z,50.00
2023-02-13T02:07:47.002Z,47.83
2023-02-13T02:10:17.318Z,49.28
2023-02-13T02:12:51.843Z,46.22
2023-02-13T02:15:21.439Z,45.10
2023-02-13T02:17:48.025Z,46.53
2023-02-13T02:20:57.358Z,42.55
2023-02-13T02:23:52.746Z,44.17
2023-02-13T02:26:34.570Z,47.58
2023-02-13T02:29:38.595Z,48.83
2023-02-13T02:32:32.239Z,44.58
2023-02-13T02:35:33.500Z,44.80
2023-02-13T02:38:06.027Z,48.75
2023-02-13T02:40:45.227Z,45.00
2023-02-13T02:43:32.169Z,45.55
2023-02-13T02:46:31.940Z,44.72
2023-02-13T02:49:34.861Z,45.80
2023-02-13T02:52:07.884Z,49.05
2023-02-13T02:55:02.906Z,48.80
2023-02-13T02:57:54.191Z,44.90
2023-02-13T03:00:42.773Z,47.72
2023-02-13T03:03:42.126Z,47.70
2023-02-13T03:06:15.486Z,45.70
2023-02-13T03:09:04.345Z,47.30
2023-02-13T03:11:50.122Z,45.17
2023-02-13T03:14:21.135Z,46.20
2023-02-13T03:17:07.891Z,44.45
2023-02-13T03:20:20.197Z,48.25
2023-02-13T03:23:14.036Z,45.15
2023-02-13T03:26:18.282Z,52.42
2023-02-13T03:29:10.867Z,45.42
2023-02-13T03:32:01.659Z,47.45
2023-02-13T03:34:55.048Z,52.17
2023-02-13T03:37:49.339Z,47.72
2023-02-13T03:40:37.009Z,47.30
2023-02-13T03:43:06.741Z,50.53
2023-02-13T03:45:54.057Z,43.50
2023-02-13T03:48:44.920Z,47.25
2023-02-13T03:51:18.943Z,45.72
2023-02-13T03:53:55.297Z,46.28
2023-02-13T03:56:41.801Z,45.28
2023-02-13T03:59:16.467Z,44.30
2023-02-13T04:02:22.063Z,50.08
2023-02-13T04:04:54.454Z,48.15
2023-02-13T04:07:33.305Z,47.30
2023-02-13T04:10:13.274Z,44.05
2023-02-13T04:12:42.769Z,48.45
2023-02-13T04:15:17.389Z,49.13
2023-02-13T04:17:50.244Z,44.75
2023-02-13T04:20:19.410Z,46.15
2023-02-13T04:22:48.177Z,42.38
2023-02-13T04:25:18.766Z,52.13
2023-02-13T04:27:45.540Z,49.47
2023-02-13T04:30:12.781Z,48.78
2023-02-13T04:32:39.382Z,51.20
2023-02-13T04:35:06.454Z,48.10
2023-02-13T04:37:33.014Z,46.03
2023-02-13T04:39:59.667Z,49.20
2023-02-13T04:42:28.678Z,48.33
2023-02-13T04:44:57.552Z,40.33
2023-02-13T04:47:24.152Z,48.35
2023-02-13T04:49:53.692Z,46.90
2023-02-13T04:52:22.647Z,45.63
2023-02-13T04:54:51.681Z,47.38
2023-02-13T04:57:18.334Z,52.08
2023-02-13T04:59:44.949Z,48.22
2023-02-13T05:02:11.513Z,46.00
2023-02-13T05:04:38.159Z,50.58
2023-02-13T05:07:04.723Z,43.03
2023-02-13T05:09:31.320Z,48.00
2023-02-13T05:12:00.131Z,44.90
2023-02-13T05:14:26.802Z,48.45
2023-02-13T05:16:55.617Z,48.88
2023-02-13T05:19:24.375Z,51.67
2023-02-13T05:22:09.575Z,46.50
2023-02-13T05:24:36.133Z,53.20
2023-02-13T05:27:02.752Z,42.55
2023-02-13T05:29:29.332Z,47.63
2023-02-13T05:31:58.386Z,46.10
2023-02-13T05:34:26.641Z,45.75
2023-02-13T05:36:53.749Z,50.78
2023-02-13T05:39:20.768Z,45.58
2023-02-13T05:41:48.391Z,44.25
2023-02-13T05:44:15.614Z,45.33
2023-02-13T05:46:43.232Z,48.42
2023-02-13T05:49:14.051Z,46.72
2023-02-13T05:51:43.353Z,41.25
2023-02-13T05:54:09.924Z,41.15
2023-02-13T05:56:36.772Z,47.42
2023-02-13T05:59:04.045Z,46.37
2023-02-13T06:01:33.039Z,41.80
2023-02-13T06:04:03.886Z,41.92
2023-02-13T06:06:32.921Z,47.05
2023-02-13T06:09:01.699Z,44.20
2023-02-13T06:11:30.597Z,40.97
2023-02-13T06:13:59.394Z,44.38
2023-02-13T06:16:30.436Z,44.22
2023-02-13T06:18:59.525Z,45.00
2023-02-13T06:21:26.575Z,38.78
2023-02-13T06:23:53.197Z,42.53
2023-02-13T06:26:19.916Z,44.27
2023-02-13T06:28:46.543Z,37.40
2023-02-13T06:31:13.303Z,44.53
2023-02-13T06:33:40.059Z,42.53
2023-02-13T06:36:07.127Z,40.60
2023-02-13T06:38:33.723Z,45.57
2023-02-13T06:41:07.261Z,43.17
2023-02-13T06:43:36.161Z,42.70
2023-02-13T06:46:06.708Z,49.42
2023-02-13T06:48:35.835Z,44.80
2023-02-13T06:51:02.473Z,46.78
2023-02-13T06:53:29.820Z,37.97
2023-02-13T06:56:03.944Z,44.03
2023-02-13T06:58:30.515Z,43.80
2023-02-13T07:00:57.368Z,45.47
2023-02-13T07:03:24.227Z,40.33
2023-02-13T07:05:52.135Z,42.90
2023-02-13T07:08:19.201Z,41.83
2023-02-13T07:10:45.826Z,39.63
2023-02-13T07:13:12.427Z,40.80
2023-02-13T07:15:39.053Z,41.63
2023-02-13T07:18:06.664Z,40.63
2023-02-13T07:20:34.010Z,45.07
2023-02-13T07:23:04.332Z,39.57
2023-02-13T07:25:31.687Z,38.93
2023-02-13T07:28:05.096Z,39.50
2023-02-13T07:30:33.065Z,38.23
2023-02-13T07:33:04.017Z,39.63
2023-02-13T07:35:31.507Z,39.83
2023-02-13T07:37:59.322Z,40.20
2023-02-13T07:40:28.355Z,43.20
2023-02-13T07:42:56.149Z,43.10
2023-02-13T07:45:23.008Z,43.57
2023-02-13T07:47:49.565Z,46.17
2023-02-13T07:50:16.146Z,41.27
2023-02-13T07:52:42.755Z,42.73
2023-02-13T07:55:11.576Z,42.27
2023-02-13T07:57:38.301Z,39.50
2023-02-13T08:00:07.756Z,39.83
2023-02-13T08:02:39.106Z,43.20
2023-02-13T08:05:08.550Z,41.13
2023-02-13T08:07:35.198Z,44.30
2023-02-13T08:10:20.399Z,45.63
2023-02-13T08:12:47.373Z,46.35
2023-02-13T08:15:17.990Z,50.45
2023-02-13T08:17:44.641Z,49.55
2023-02-13T08:20:12.011Z,43.92
2023-02-13T08:22:39.583Z,45.15
2023-02-13T08:25:09.726Z,50.08
2023-02-13T08:27:36.352Z,50.47
2023-02-13T08:30:06.717Z,46.75
2023-02-13T08:32:44.915Z,52.30
2023-02-13T08:35:19.619Z,45.30
2023-02-13T08:37:47.620Z,47.95
2023-02-13T08:40:14.784Z,50.33
2023-02-13T08:42:41.660Z,46.42
2023-02-13T08:45:10.562Z,50.10
2023-02-13T08:47:40.543Z,46.38
2023-02-13T08:50:08.068Z,49.15
2023-02-13T08:52:34.868Z,47.20
2023-02-13T08:55:03.492Z,46.10
2023-02-13T08:57:31.237Z,46.95
2023-02-13T09:00:00.005Z,48.30
2023-02-13T09:02:26.744Z,53.30
2023-02-13T09:04:55.896Z,54.00
2023-02-13T09:07:25.556Z,53.75
2023-02-13T09:09:52.373Z,49.20
2023-02-13T09:12:19.011Z,46.55
2023-02-13T09:14:48.090Z,50.83
2023-02-13T09:17:18.428Z,49.53
2023-02-13T09:19:46.671Z,55.08
2023-02-13T09:22:13.314Z,48.10
2023-02-13T09:24:44.824Z,46.22
2023-02-13T09:27:11.445Z,50.25
2023-02-13T09:29:38.075Z,43.70
2023-02-13T09:32:06.263Z,42.60
2023-02-13T09:34:35.230Z,42.22
2023-02-13T09:37:01.807Z,46.28
2023-02-13T09:39:28.370Z,40.33
2023-02-13T09:41:55.972Z,40.10
2023-02-13T09:44:43.542Z,39.92
2023-02-13T09:47:22.097Z,36.95
2023-02-13T09:50:16.583Z,32.15
2023-02-13T09:52:46.131Z,33.90
2023-02-13T09:55:17.614Z,33.60
2023-02-13T09:57:56.644Z,30.20
2023-02-13T10:00:32.815Z,34.50
2023-02-13T10:02:59.360Z,29.55
2023-02-13T10:05:38.140Z,27.92
2023-02-13T10:08:10.618Z,29.63
2023-02-13T10:11:21.939Z,30.55
2023-02-13T10:14:12.293Z,28.35
2023-02-13T10:16:45.112Z,26.55
2023-02-13T10:20:03.402Z,27.35
2023-02-13T10:22:33.956Z,35.53
2023-02-13T10:25:13.163Z,30.20
2023-02-13T10:27:47.223Z,28.30
2023-02-13T10:30:52.166Z,28.23
2023-02-13T10:33:26.798Z,28.33
2023-02-13T10:36:01.103Z,27.30
2023-02-13T10:38:31.767Z,27.13
2023-02-13T10:41:04.660Z,24.50
2023-02-13T10:43:46.927Z,23.58
2023-02-13T10:46:22.620Z,23.00
2023-02-13T10:48:52.163Z,24.40
2023-02-13T10:51:35.441Z,21.35
2023-02-13T10:54:30.172Z,22.13
2023-02-13T10:57:34.668Z,20.58
2023-02-13T11:00:31.404Z,21.48
2023-02-13T11:02:59.804Z,19.98
2023-02-13T11:05:37.905Z,22.52
2023-02-13T11:08:30.078Z,21.38
2023-02-13T11:10:56.594Z,19.48
2023-02-13T11:13:26.229Z,19.48
2023-02-13T11:16:03.007Z,19.95
2023-02-13T11:18:34.320Z,19.73
2023-02-13T11:21:16.632Z,22.17
2023-02-13T11:23:50.271Z,21.92
2023-02-13T11:26:32.907Z,19.45
2023-02-13T11:29:25.385Z,19.13
2023-02-13T11:32:05.597Z,18.15
2023-02-13T11:34:34.567Z,22.17
2023-02-13T11:37:15.873Z,21.45
2023-02-13T11:39:44.616Z,23.70
2023-02-13T11:42:15.440Z,20.73
2023-02-13T11:44:48.457Z,19.55
2023-02-13T11:47:16.235Z,21.70
2023-02-13T11:49:47.548Z,22.08
2023-02-13T11:52:32.616Z,20.40
2023-02-13T11:55:05.059Z,20.55
2023-02-13T11:57:35.286Z,20.38
2023-02-13T12:00:29.894Z,22.90
2023-02-13T12:02:56.729Z,22.15
2023-02-13T12:05:26.710Z,24.15
2023-02-13T12:07:57.657Z,21.40
2023-02-13T12:10:29.101Z,22.00
2023-02-13T12:12:59.313Z,20.90
2023-02-13T12:15:38.245Z,19.85
2023-02-13T12:18:10.941Z,21.83
2023-02-13T12:20:53.764Z,25.00
2023-02-13T12:24:00.549Z,20.00
2023-02-13T12:26:39.364Z,22.40
2023-02-13T12:29:36.171Z,21.92
2023-02-13T12:32:21.394Z,22.70
2023-02-13T12:34:53.904Z,21.52
2023-02-13T12:37:46.712Z,21.83
2023-02-13T12:40:27.300Z,21.63
2023-02-13T12:43:12.352Z,22.48
2023-02-13T12:46:04.872Z,20.08
2023-02-13T12:49:18.538Z,20.02
2023-02-13T12:52:09.576Z,25.13
2023-02-13T12:55:12.944Z,19.20
2023-02-13T12:57:57.129Z,22.27
2023-02-13T13:00:50.810Z,22.23
2023-02-13T13:03:20.184Z,21.17
2023-02-13T13:05:50.725Z,18.25
2023-02-13T13:08:29.899Z,19.33
2023-02-13T13:11:02.603Z,18.23
2023-02-13T13:13:48.491Z,20.73
2023-02-13T13:16:27.021Z,17.23
2023-02-13T13:19:00.786Z,18.77
2023-02-13T13:22:12.930Z,20.67
2023-02-13T13:24:55.054Z,20.38
2023-02-13T13:27:49.985Z,20.23
2023-02-13T13:30:22.747Z,20.08
2023-02-13T13:32:55.591Z,18.95
2023-02-13T13:35:24.970Z,20.38
2023-02-13T13:38:14.485Z,20.58
2023-02-13T13:40:53.668Z,18.52
2023-02-13T13:43:59.766Z,19.38
2023-02-13T13:47:05.811Z,18.67
2023-02-13T13:49:55.658Z,17.88
2023-02-13T13:52:22.593Z,19.50
2023-02-13T13:54:52.020Z,17.33
2023-02-13T13:57:20.559Z,20.38
2023-02-13T13:59:55.544Z,19.83
2023-02-13T14:02:22.124Z,20.73
2023-02-13T14:05:06.428Z,18.88
2023-02-13T14:07:38.571Z,20.40
2023-02-13T14:10:06.579Z,20.08
2023-02-13T14:12:33.245Z,21.23
2023-02-13T14:15:00.221Z,19.33
2023-02-13T14:17:45.321Z,17.20
2023-02-13T14:20:37.750Z,17.95
2023-02-13T14:23:23.965Z,17.17
2023-02-13T14:26:09.982Z,17.35
2023-02-13T14:28:37.098Z,18.85
2023-02-13T14:31:22.416Z,21.23
2023-02-13T14:34:17.000Z,20.83
2023-02-13T14:37:07.084Z,20.77
2023-02-13T14:39:37.657Z,20.00
2023-02-13T14:42:30.047Z,18.33
2023-02-13T14:44:59.672Z,20.85
2023-02-13T14:47:36.441Z,19.33
2023-02-13T14:50:14.436Z,22.63
2023-02-13T14:52:47.371Z,18.23
2023-02-13T14:55:35.036Z,19.10
2023-02-13T14:58:12.742Z,17.83
2023-02-13T15:00:51.446Z,20.55
2023-02-13T15:03:38.709Z,20.23
2023-02-13T15:06:16.649Z,21.80
2023-02-13T15:08:49.445Z,22.10
2023-02-13T15:11:36.768Z,22.80
2023-02-13T15:14:35.763Z,21.20
2023-02-13T15:17:19.622Z,21.23
2023-02-13T15:19:49.108Z,21.60
2023-02-13T15:22:25.755Z,21.45
2023-02-13T15:24:52.528Z,23.38
2023-02-13T15:27:39.294Z,20.83
2023-02-13T15:30:15.224Z,23.55
2023-02-13T15:32:54.094Z,22.58
2023-02-13T15:35:33.044Z,23.70
2023-02-13T15:38:02.863Z,23.48
2023-02-13T15:40:39.712Z,24.75
2023-02-13T15:43:23.328Z,27.67
2023-02-13T15:45:49.983Z,23.60
2023-02-13T15:48:17.736Z,23.52
2023-02-13T15:50:45.275Z,23.92
2023-02-13T15:53:16.249Z,26.00
2023-02-13T15:55:55.091Z,23.27
2023-02-13T15:58:33.269Z,24.98
2023-02-13T16:01:03.807Z,29.67
2023-02-13T16:03:34.594Z,26.05
2023-02-13T16:06:01.783Z,26.52
2023-02-13T16:08:33.680Z,26.02
2023-02-13T16:11:17.062Z,25.92
2023-02-13T16:14:16.509Z,27.58
2023-02-13T16:16:43.476Z,26.35
2023-02-13T16:19:24.136Z,27.30
2023-02-13T16:21:55.973Z,26.50
2023-02-13T16:24:24.533Z,27.02
2023-02-13T16:26:51.710Z,24.52
2023-02-13T16:29:22.167Z,28.60
2023-02-13T16:31:50.416Z,24.02
2023-02-13T16:34:31.571Z,25.50
2023-02-13T16:36:58.203Z,25.30
2023-02-13T16:39:35.563Z,28.83
2023-02-13T16:42:14.162Z,28.02
2023-02-13T16:44:42.987Z,30.55
2023-02-13T16:47:28.637Z,28.42
2023-02-13T16:49:57.293Z,29.08
2023-02-13T16:52:26.773Z,28.02
2023-02-13T16:54:57.006Z,27.85
2023-02-13T16:57:30.845Z,35.28
2023-02-13T17:00:04.002Z,31.80
2023-02-13T17:02:38.778Z,31.33
2023-02-13T17:05:25.895Z,32.92
2023-02-13T17:07:56.922Z,28.92
2023-02-13T17:10:33.948Z,33.85
2023-02-13T17:13:09.324Z,33.72
2023-02-13T17:15:35.921Z,32.83
2023-02-13T17:18:02.608Z,35.38
2023-02-13T17:20:34.026Z,37.08
2023-02-13T17:23:04.129Z,35.38
2023-02-13T17:25:38.120Z,36.28
2023-02-13T17:28:18.688Z,33.95
2023-02-13T17:30:46.319Z,35.70
2023-02-13T17:33:23.601Z,38.40
2023-02-13T17:35:50.839Z,37.90
2023-02-13T17:38:17.557Z,36.30
2023-02-13T17:40:45.494Z,35.85
2023-02-13T17:43:13.849Z,35.38
2023-02-13T17:45:40.882Z,36.65
2023-02-13T17:48:07.629Z,34.28
2023-02-13T17:50:34.891Z,36.60
2023-02-13T17:53:18.422Z,37.17
2023-02-13T17:55:45.013Z,35.38
2023-02-13T17:58:11.532Z,37.75
2023-02-13T18:00:38.237Z,40.22
2023-02-13T18:03:04.868Z,40.28
2023-02-13T18:05:33.212Z,32.58
2023-02-13T18:08:03.816Z,40.13
2023-02-13T18:10:33.419Z,36.17
2023-02-13T18:13:06.096Z,36.72
2023-02-13T18:15:42.629Z,36.15
2023-02-13T18:18:12.050Z,33.22
2023-02-13T18:20:41.576Z,39.80
2023-02-13T18:23:11.409Z,29.92
2023-02-13T18:25:42.830Z,30.38
2023-02-13T18:28:09.477Z,32.72
2023-02-13T18:30:36.015Z,36.60
2023-02-13T18:33:05.699Z,35.33
2023-02-13T18:35:33.401Z,41.35
2023-02-13T18:37:59.998Z,34.92
2023-02-13T18:40:26.898Z,35.35
2023-02-13T18:42:53.735Z,38.50
2023-02-13T18:45:20.425Z,38.28
2023-02-13T18:47:46.989Z,36.72
2023-02-13T18:50:15.747Z,34.22
2023-02-13T18:52:42.330Z,33.25
2023-02-13T18:55:11.193Z,32.80
2023-02-13T18:57:37.830Z,34.20
2023-02-13T19:00:05.559Z,34.75
2023-02-13T19:02:33.534Z,30.20
2023-02-13T19:05:02.757Z,33.80
2023-02-13T19:07:31.732Z,33.40
2023-02-13T19:09:58.361Z,30.27
2023-02-13T19:12:27.433Z,39.97
2023-02-13T19:14:54.032Z,36.58
2023-02-13T19:17:20.630Z,35.35
2023-02-13T19:19:50.428Z,33.97
2023-02-13T19:22:17.401Z,35.95
2023-02-13T19:24:44.143Z,35.38
2023-02-13T19:27:11.396Z,34.50
2023-02-13T19:29:38.012Z,31.75
2023-02-13T19:32:07.643Z,34.42
2023-02-13T19:34:34.679Z,35.25
2023-02-13T19:37:04.285Z,33.00
2023-02-13T19:39:30.864Z,29.20
2023-02-13T19:41:57.466Z,31.17
2023-02-13T19:44:26.543Z,32.08
2023-02-13T19:46:53.359Z,32.20
2023-02-13T19:49:22.334Z,30.50
2023-02-13T19:51:48.985Z,30.67
2023-02-13T19:54:15.619Z,31.63
2023-02-13T19:56:42.343Z,33.40
2023-02-13T19:59:13.345Z,33.67
2023-02-13T20:01:43.827Z,30.15
2023-02-13T20:04:16.157Z,31.88
2023-02-13T20:06:42.830Z,38.88
2023-02-13T20:09:12.853Z,54.05
2023-02-13T20:11:41.467Z,47.78
2023-02-13T20:14:11.692Z,52.47
2023-02-13T20:16:38.559Z,47.40
2023-02-13T20:19:09.556Z,59.00
2023-02-13T20:21:36.872Z,55.63
2023-02-13T20:24:07.874Z,57.67
2023-02-13T20:26:37.157Z,62.42
2023-02-13T20:29:03.819Z,54.08
2023-02-13T20:31:30.749Z,53.85
2023-02-13T20:33:58.288Z,64.10
2023-02-13T20:36:27.549Z,62.47
2023-02-13T20:38:57.394Z,61.30
2023-02-13T20:41:28.795Z,59.88
2023-02-13T20:44:03.824Z,64.22
2023-02-13T20:46:32.219Z,53.03
2023-02-13T20:48:58.824Z,55.78
2023-02-13T20:51:25.674Z,60.63
2023-02-13T20:53:52.308Z,51.83
2023-02-13T20:56:21.832Z,55.95
2023-02-13T20:58:50.632Z,52.28
2023-02-13T21:01:28.149Z,55.50
2023-02-13T21:03:56.436Z,54.88
2023-02-13T21:06:31.923Z,54.03
2023-02-13T21:08:58.898Z,65.25
2023-02-13T21:11:31.299Z,59.30
2023-02-13T21:13:58.320Z,72.40
2023-02-13T21:16:29.597Z,83.22
2023-02-13T21:18:58.863Z,75.43
2023-02-13T21:21:29.173Z,75.90
2023-02-13T21:23:57.809Z,64.97
2023-02-13T21:26:25.662Z,56.65
2023-02-13T21:28:52.797Z,50.55
2023-02-13T21:31:23.857Z,43.20
2023-02-13T21:33:52.985Z,45.28
2023-02-13T21:36:21.788Z,47.70
2023-02-13T21:38:50.818Z,34.45
2023-02-13T21:41:18.743Z,36.67
2023-02-13T21:43:48.352Z,37.00
2023-02-13T21:46:19.787Z,39.55
2023-02-13T21:48:47.747Z,32.85
2023-02-13T21:51:16.817Z,33.45
2023-02-13T21:53:48.327Z,36.60
2023-02-13T21:56:18.362Z,33.15
2023-02-13T21:58:45.750Z,38.05
2023-02-13T22:01:30.653Z,31.90
2023-02-13T22:04:01.158Z,40.75
2023-02-13T22:06:30.244Z,33.55
2023-02-13T22:09:11.330Z,33.80
2023-02-13T22:11:38.468Z,30.75
2023-02-13T22:14:07.880Z,31.35
2023-02-13T22:16:37.611Z,30.63
2023-02-13T22:19:09.469Z,31.83
2023-02-13T22:21:36.689Z,30.73
2023-02-13T22:24:03.496Z,32.50
2023-02-13T22:26:38.174Z,29.23
2023-02-13T22:29:06.736Z,29.55
2023-02-13T22:31:34.182Z,29.73
2023-02-13T22:34:06.984Z,31.23
2023-02-13T22:36:35.260Z,33.17
2023-02-13T22:39:01.892Z,31.03
2023-02-13T22:41:30.776Z,33.17
2023-02-13T22:43:57.591Z,32.73
2023-02-13T22:46:29.998Z,33.40
2023-02-13T22:48:57.362Z,31.17
2023-02-13T22:51:27.654Z,30.80
2023-02-13T22:53:55.838Z,32.67
2023-02-13T22:56:23.375Z,31.23
2023-02-13T22:58:50.139Z,31.40
2023-02-13T23:01:23.128Z,34.10
2023-02-13T23:03:50.823Z,37.00
2023-02-13T23:06:17.987Z,36.67
2023-02-13T23:08:45.461Z,37.77
2023-02-13T23:11:35.303Z,31.77
2023-02-13T23:14:04.640Z,32.90
2023-02-13T23:16:50.347Z,37.23
2023-02-13T23:19:17.006Z,33.00
2023-02-13T23:21:45.822Z,31.93
2023-02-13T23:24:12.438Z,32.77
2023-02-13T23:26:39.168Z,33.30
2023-02-13T23:29:08.290Z,33.57
2023-02-13T23:31:34.973Z,33.00
2023-02-13T23:34:01.762Z,34.23
2023-02-13T23:36:28.694Z,30.37
2023-02-13T23:38:55.301Z,34.20
2023-02-13T23:41:21.901Z,35.63
2023-02-13T23:43:48.463Z,29.97
2023-02-13T23:46:15.036Z,31.60
2023-02-13T23:48:41.584Z,36.30
2023-02-13T23:51:08.119Z,32.63
2023-02-13T23:53:38.133Z,32.30
2023-02-13T23:56:05.376Z,30.10
2023-02-13T23:58:31.966Z,31.10
